Aérodrome :
LOGIN :

S'inscrire | Disclaimer

   EN    FR    IT 

 










Légende :    VFR   VFR Marginal   IFR   IFR Intensif   IFR Très Intensif
Visi : 
Plafond : 
>= 8 km
>= 3000ft
5 à 8 km
1000 à 3000 ft
1500m à 5 km
500 à 1000 ft
800 à 1500m
200 à 500 ft
< 800m
< 200 ft
Symboles :   Orages  Brouillard  Fortes neiges  Fortes précipitations  Vent > 20 kt
SIGMETs :   Divers  Orages  Givrage  Turbulence  Onde Orograph.  Cendres Volcan.






- Altitude de l'aérodrome : 187 ft


ETNW - Wunstorf AB

DERNIER METAR :
  • 040320Z AUTO 28003KT 7000 // ////// 02/M00 Q1022 ///

METARs EXPIRÉS :
  • 040220Z AUTO 28003KT 7000 // ////// 04/M00 Q1021 ///
  • 040120Z AUTO 31003KT 7000 // ////// 03/M01 Q1021 ///
  • 040020Z AUTO 30002KT 7000 // ////// 05/M01 Q1020 ///

TAF AMD TAF ETNW
Valide du 03 à 17h jusqu'au 04 à 11h UTC


031718Z 0317/0411 27010KT 9999 NSW BKN050
TEMPO 0317/0321 28012G22KT 7000 -RA BKN020
BECMG 0321/0323 26005KT 8000 NSW SCT030
PROB30 0402/0406 VRB03KT 3000 MIFG SCT260 CANCEL 1718 BY ETGL



MET'MAP, la Météo Aéronautique d'un coup d'oeil ! - Copyright ORBIFLY Décembre 2007 - Disclaimer

ORBIFLY MET'MAP TEAM :

Programmation & Développement : Alexandra Zaïnal
Sur une idée originale de : Baudouin d'Aumeries
Assistance à la programmation : Marc-Olivier Méhu
Soutien technique & logistique : Manuel Goepfert

Contact : metmap@orbifly.com




SOURCES & CREDITS :

   NOAA